sensor_id;sensor_type;location;lat;lon;timestamp;pressure;altitude;pressure_sealevel;temperature;humidity
69351;BME280;57106;51.446;-2.606;2023-04-01T00:02:30;100048.56;;;11.32;81.49
69351;BME280;57106;51.446;-2.606;2023-04-01T00:04:56;100053.73;;;11.30;82.01
69351;BME280;57106;51.446;-2.606;2023-04-01T00:07:21;100052.53;;;11.40;81.54
69351;BME280;57106;51.446;-2.606;2023-04-01T00:09:52;100056.84;;;11.33;81.71
69351;BME280;57106;51.446;-2.606;2023-04-01T00:12:12;100061.53;;;11.52;81.25
69351;BME280;57106;51.446;-2.606;2023-04-01T00:14:39;100056.98;;;11.49;80.93
69351;BME280;57106;51.446;-2.606;2023-04-01T00:17:03;100057.97;;;11.34;81.37
69351;BME280;57106;51.446;-2.606;2023-04-01T00:19:29;100064.16;;;11.12;82.65
69351;BME280;57106;51.446;-2.606;2023-04-01T00:21:56;100067.47;;;11.08;82.78
69351;BME280;57106;51.446;-2.606;2023-04-01T00:24:20;100065.87;;;11.27;82.31
69351;BME280;57106;51.446;-2.606;2023-04-01T00:26:45;100070.16;;;11.43;81.35
69351;BME280;57106;51.446;-2.606;2023-04-01T00:29:11;100072.61;;;11.25;82.04
69351;BME280;57106;51.446;-2.606;2023-04-01T00:31:37;100073.18;;;10.94;83.18
69351;BME280;57106;51.446;-2.606;2023-04-01T00:34:02;100077.63;;;10.99;83.31
69351;BME280;57106;51.446;-2.606;2023-04-01T00:36:27;100074.97;;;11.21;82.72
69351;BME280;57106;51.446;-2.606;2023-04-01T00:38:54;100077.00;;;11.11;82.64
69351;BME280;57106;51.446;-2.606;2023-04-01T00:41:19;100079.48;;;11.12;82.69
69351;BME280;57106;51.446;-2.606;2023-04-01T00:43:47;100084.94;;;11.19;82.89
69351;BME280;57106;51.446;-2.606;2023-04-01T00:46:10;100081.18;;;11.15;82.48
69351;BME280;57106;51.446;-2.606;2023-04-01T00:48:38;100085.65;;;11.15;82.36
69351;BME280;57106;51.446;-2.606;2023-04-01T00:51:03;100091.56;;;11.25;81.90
69351;BME280;57106;51.446;-2.606;2023-04-01T00:53:28;100087.54;;;11.33;81.99
69351;BME280;57106;51.446;-2.606;2023-04-01T00:55:55;100091.43;;;11.28;82.00
69351;BME280;57106;51.446;-2.606;2023-04-01T01:00:43;100095.25;;;11.43;81.69
69351;BME280;57106;51.446;-2.606;2023-04-01T01:03:09;100094.72;;;11.51;81.19
69351;BME280;57106;51.446;-2.606;2023-04-01T01:05:44;100096.09;;;11.49;81.12
69351;BME280;57106;51.446;-2.606;2023-04-01T01:08:08;100097.79;;;11.51;81.10
69351;BME280;57106;51.446;-2.606;2023-04-01T01:10:30;100099.09;;;11.37;81.22
69351;BME280;57106;51.446;-2.606;2023-04-01T01:12:55;100099.21;;;11.44;81.26
69351;BME280;57106;51.446;-2.606;2023-04-01T01:15:20;100096.99;;;11.39;81.36
69351;BME280;57106;51.446;-2.606;2023-04-01T01:17:49;100105.07;;;11.24;81.80
69351;BME280;57106;51.446;-2.606;2023-04-01T01:20:20;100101.53;;;11.47;81.37
69351;BME280;57106;51.446;-2.606;2023-04-01T01:22:42;100104.45;;;11.59;81.00
69351;BME280;57106;51.446;-2.606;2023-04-01T01:25:11;100107.29;;;11.41;80.79
69351;BME280;57106;51.446;-2.606;2023-04-01T01:27:24;100109.21;;;11.34;81.70
69351;BME280;57106;51.446;-2.606;2023-04-01T01:30:05;100112.30;;;11.38;81.83
69351;BME280;57106;51.446;-2.606;2023-04-01T01:32:22;100113.61;;;11.42;81.43
69351;BME280;57106;51.446;-2.606;2023-04-01T01:34:47;100115.89;;;11.36;81.60
69351;BME280;57106;51.446;-2.606;2023-04-01T01:37:09;100114.97;;;11.32;81.68
69351;BME280;57106;51.446;-2.606;2023-04-01T01:39:33;100117.46;;;11.22;82.08
69351;BME280;57106;51.446;-2.606;2023-04-01T01:42:01;100115.94;;;11.12;82.15
69351;BME280;57106;51.446;-2.606;2023-04-01T01:44:25;100115.06;;;11.18;82.25
69351;BME280;57106;51.446;-2.606;2023-04-01T01:49:15;100119.83;;;11.23;82.01
69351;BME280;57106;51.446;-2.606;2023-04-01T01:51:40;100125.96;;;11.32;81.44
69351;BME280;57106;51.446;-2.606;2023-04-01T01:54:05;100124.90;;;11.36;81.39
69351;BME280;57106;51.446;-2.606;2023-04-01T01:56:30;100126.39;;;11.48;80.62
69351;BME280;57106;51.446;-2.606;2023-04-01T02:35:20;100153.10;;;11.06;81.50
69351;BME280;57106;51.446;-2.606;2023-04-01T02:37:46;100152.37;;;10.96;80.98
69351;BME280;57106;51.446;-2.606;2023-04-01T02:40:12;100154.61;;;11.07;81.09
69351;BME280;57106;51.446;-2.606;2023-04-01T02:42:35;100158.82;;;11.22;80.36
69351;BME280;57106;51.446;-2.606;2023-04-01T02:45:02;100162.70;;;11.33;79.72
69351;BME280;57106;51.446;-2.606;2023-04-01T02:47:26;100163.45;;;11.20;79.92
69351;BME280;57106;51.446;-2.606;2023-04-01T02:49:52;100161.27;;;11.07;80.58
69351;BME280;57106;51.446;-2.606;2023-04-01T02:52:17;100159.88;;;11.06;80.47
69351;BME280;57106;51.446;-2.606;2023-04-01T02:54:43;100161.01;;;10.93;81.06
69351;BME280;57106;51.446;-2.606;2023-04-01T02:57:09;100159.97;;;10.89;81.36
69351;BME280;57106;51.446;-2.606;2023-04-01T02:59:34;100163.20;;;10.81;81.04
69351;BME280;57106;51.446;-2.606;2023-04-01T03:02:05;100159.01;;;10.75;82.11
69351;BME280;57106;51.446;-2.606;2023-04-01T03:04:25;100164.82;;;10.90;81.82
69351;BME280;57106;51.446;-2.606;2023-04-01T03:06:50;100165.00;;;10.92;81.68
69351;BME280;57106;51.446;-2.606;2023-04-01T03:09:16;100164.72;;;10.84;81.03
69351;BME280;57106;51.446;-2.606;2023-04-01T03:11:41;100164.78;;;10.84;81.86
69351;BME280;57106;51.446;-2.606;2023-04-01T03:14:07;100167.28;;;10.89;81.61
69351;BME280;57106;51.446;-2.606;2023-04-01T03:16:38;100168.19;;;10.70;81.81
69351;BME280;57106;51.446;-2.606;2023-04-01T03:18:59;100171.34;;;10.70;81.68
69351;BME280;57106;51.446;-2.606;2023-04-01T03:21:24;100170.67;;;10.59;82.45
69351;BME280;57106;51.446;-2.606;2023-04-01T03:23:49;100172.54;;;10.57;82.66
69351;BME280;57106;51.446;-2.606;2023-04-01T03:26:14;100172.45;;;10.67;82.68
69351;BME280;57106;51.446;-2.606;2023-04-01T03:28:40;100177.35;;;10.78;82.38
69351;BME280;57106;51.446;-2.606;2023-04-01T03:31:05;100172.20;;;10.63;82.74
69351;BME280;57106;51.446;-2.606;2023-04-01T03:33:31;100170.69;;;10.62;82.71
69351;BME280;57106;51.446;-2.606;2023-04-01T03:35:57;100171.24;;;10.48;83.27
69351;BME280;57106;51.446;-2.606;2023-04-01T03:38:22;100171.89;;;10.55;83.19
69351;BME280;57106;51.446;-2.606;2023-04-01T03:40:47;100174.17;;;10.56;83.39
69351;BME280;57106;51.446;-2.606;2023-04-01T03:43:13;100174.67;;;10.50;83.38
69351;BME280;57106;51.446;-2.606;2023-04-01T03:45:43;100173.58;;;10.55;82.97
69351;BME280;57106;51.446;-2.606;2023-04-01T03:48:04;100173.10;;;10.54;83.23
69351;BME280;57106;51.446;-2.606;2023-04-01T03:50:29;100174.10;;;10.35;83.54
69351;BME280;57106;51.446;-2.606;2023-04-01T03:52:55;100174.08;;;10.45;83.34
69351;BME280;57106;51.446;-2.606;2023-04-01T03:55:20;100172.09;;;10.49;83.45
69351;BME280;57106;51.446;-2.606;2023-04-01T03:57:46;100178.34;;;10.62;82.75
69351;BME280;57106;51.446;-2.606;2023-04-01T04:00:12;100178.77;;;10.54;83.12
69351;BME280;57106;51.446;-2.606;2023-04-01T04:02:37;100180.48;;;10.36;83.49
69351;BME280;57106;51.446;-2.606;2023-04-01T04:05:03;100184.50;;;10.39;83.54
69351;BME280;57106;51.446;-2.606;2023-04-01T04:07:28;100187.66;;;10.31;84.39
69351;BME280;57106;51.446;-2.606;2023-04-01T04:09:54;100184.54;;;10.34;84.34
69351;BME280;57106;51.446;-2.606;2023-04-01T04:12:19;100191.73;;;10.34;84.00
69351;BME280;57106;51.446;-2.606;2023-04-01T04:14:45;100198.76;;;10.36;84.17
69351;BME280;57106;51.446;-2.606;2023-04-01T04:17:11;100198.03;;;10.34;84.16
69351;BME280;57106;51.446;-2.606;2023-04-01T04:19:36;100203.76;;;10.40;84.38
69351;BME280;57106;51.446;-2.606;2023-04-01T04:22:06;100207.01;;;10.36;84.63
69351;BME280;57106;51.446;-2.606;2023-04-01T04:24:27;100214.07;;;10.52;83.97
69351;BME280;57106;51.446;-2.606;2023-04-01T04:27:03;100211.18;;;10.58;83.67
69351;BME280;57106;51.446;-2.606;2023-04-01T04:29:18;100213.15;;;10.57;83.38
69351;BME280;57106;51.446;-2.606;2023-04-01T04:31:43;100215.07;;;10.67;82.95
69351;BME280;57106;51.446;-2.606;2023-04-01T04:34:09;100215.96;;;10.74;82.56
69351;BME280;57106;51.446;-2.606;2023-04-01T04:36:34;100222.30;;;10.95;82.19
69351;BME280;57106;51.446;-2.606;2023-04-01T04:39:00;100221.53;;;10.62;83.05
69351;BME280;57106;51.446;-2.606;2023-04-01T04:41:25;100229.76;;;10.66;82.86
69351;BME280;57106;51.446;-2.606;2023-04-01T04:43:52;100229.55;;;10.65;82.51
69351;BME280;57106;51.446;-2.606;2023-04-01T04:46:16;100238.44;;;10.63;83.06
69351;BME280;57106;51.446;-2.606;2023-04-01T04:48:41;100232.93;;;10.63;83.05
69351;BME280;57106;51.446;-2.606;2023-04-01T04:51:07;100229.74;;;10.41;83.86
69351;BME280;57106;51.446;-2.606;2023-04-01T04:53:33;100233.15;;;10.54;83.36
69351;BME280;57106;51.446;-2.606;2023-04-01T04:55:58;100233.49;;;10.31;84.30
69351;BME280;57106;51.446;-2.606;2023-04-01T04:58:24;100237.52;;;10.53;83.79
69351;BME280;57106;51.446;-2.606;2023-04-01T05:00:56;100240.04;;;10.48;83.51
69351;BME280;57106;51.446;-2.606;2023-04-01T05:03:15;100241.12;;;10.43;83.50
69351;BME280;57106;51.446;-2.606;2023-04-01T05:05:48;100241.18;;;10.52;83.78
69351;BME280;57106;51.446;-2.606;2023-04-01T05:08:06;100239.66;;;10.29;83.89
69351;BME280;57106;51.446;-2.606;2023-04-01T05:10:36;100243.97;;;10.34;84.04
69351;BME280;57106;51.446;-2.606;2023-04-01T05:12:57;100245.48;;;10.50;83.33
69351;BME280;57106;51.446;-2.606;2023-04-01T05:15:23;100248.28;;;10.45;83.58
69351;BME280;57106;51.446;-2.606;2023-04-01T05:17:48;100250.20;;;10.38;83.66
69351;BME280;57106;51.446;-2.606;2023-04-01T05:20:14;100252.34;;;10.45;83.20
69351;BME280;57106;51.446;-2.606;2023-04-01T05:22:39;100257.05;;;10.54;83.01
69351;BME280;57106;51.446;-2.606;2023-04-01T05:25:05;100257.36;;;10.37;83.69
69351;BME280;57106;51.446;-2.606;2023-04-01T05:27:30;100261.13;;;10.43;83.67
69351;BME280;57106;51.446;-2.606;2023-04-01T05:29:55;100259.92;;;10.30;83.89
69351;BME280;57106;51.446;-2.606;2023-04-01T05:32:21;100259.63;;;10.37;83.99
69351;BME280;57106;51.446;-2.606;2023-04-01T05:34:46;100264.47;;;10.46;83.67
69351;BME280;57106;51.446;-2.606;2023-04-01T05:37:12;100266.55;;;10.20;84.46
69351;BME280;57106;51.446;-2.606;2023-04-01T05:39:38;100274.13;;;10.15;84.71
69351;BME280;57106;51.446;-2.606;2023-04-01T05:42:06;100270.22;;;10.33;84.39
69351;BME280;57106;51.446;-2.606;2023-04-01T05:44:29;100269.75;;;10.29;84.29
69351;BME280;57106;51.446;-2.606;2023-04-01T05:46:54;100276.38;;;10.15;84.80
69351;BME280;57106;51.446;-2.606;2023-04-01T05:49:23;100275.94;;;10.36;83.96
69351;BME280;57106;51.446;-2.606;2023-04-01T05:51:45;100279.66;;;10.50;83.91
69351;BME280;57106;51.446;-2.606;2023-04-01T05:54:11;100279.93;;;10.54;83.45
69351;BME280;57106;51.446;-2.606;2023-04-01T05:56:36;100288.58;;;10.80;82.51
69351;BME280;57106;51.446;-2.606;2023-04-01T05:59:02;100288.36;;;10.77;81.89
69351;BME280;57106;51.446;-2.606;2023-04-01T06:01:28;100288.60;;;10.67;82.13
69351;BME280;57106;51.446;-2.606;2023-04-01T06:03:53;100293.35;;;10.58;82.79
69351;BME280;57106;51.446;-2.606;2023-04-01T06:06:24;100293.51;;;10.66;82.71
69351;BME280;57106;51.446;-2.606;2023-04-01T06:08:45;100299.34;;;10.78;81.74
69351;BME280;57106;51.446;-2.606;2023-04-01T06:11:19;100299.59;;;10.70;81.68
69351;BME280;57106;51.446;-2.606;2023-04-01T06:13:46;100303.08;;;10.72;82.16
69351;BME280;57106;51.446;-2.606;2023-04-01T06:16:10;100303.16;;;10.78;81.67
69351;BME280;57106;51.446;-2.606;2023-04-01T06:18:45;100302.63;;;10.60;82.01
69351;BME280;57106;51.446;-2.606;2023-04-01T06:21:01;100305.95;;;10.56;82.22
69351;BME280;57106;51.446;-2.606;2023-04-01T06:23:28;100307.36;;;10.59;82.45
69351;BME280;57106;51.446;-2.606;2023-04-01T06:25:51;100311.71;;;10.64;82.07
69351;BME280;57106;51.446;-2.606;2023-04-01T06:30:40;100318.61;;;10.74;81.41
69351;BME280;57106;51.446;-2.606;2023-04-01T06:33:20;100319.07;;;10.62;82.10
69351;BME280;57106;51.446;-2.606;2023-04-01T06:35:35;100325.74;;;10.58;82.26
69351;BME280;57106;51.446;-2.606;2023-04-01T06:38:09;100330.28;;;10.62;81.97
69351;BME280;57106;51.446;-2.606;2023-04-01T06:40:27;100338.75;;;10.50;82.62
69351;BME280;57106;51.446;-2.606;2023-04-01T06:42:55;100337.50;;;10.50;82.98
69351;BME280;57106;51.446;-2.606;2023-04-01T06:45:16;100335.55;;;10.51;82.64
69351;BME280;57106;51.446;-2.606;2023-04-01T06:47:42;100343.90;;;10.49;82.30
69351;BME280;57106;51.446;-2.606;2023-04-01T06:50:05;100342.01;;;10.69;82.21
69351;BME280;57106;51.446;-2.606;2023-04-01T06:52:30;100348.14;;;10.87;81.40
69351;BME280;57106;51.446;-2.606;2023-04-01T06:54:53;100351.82;;;10.86;81.25
69351;BME280;57106;51.446;-2.606;2023-04-01T06:57:23;100352.23;;;10.79;81.42
69351;BME280;57106;51.446;-2.606;2023-04-01T06:59:41;100358.28;;;10.88;81.40
69351;BME280;57106;51.446;-2.606;2023-04-01T07:02:16;100357.33;;;10.77;81.77
69351;BME280;57106;51.446;-2.606;2023-04-01T07:04:33;100363.34;;;10.89;81.61
69351;BME280;57106;51.446;-2.606;2023-04-01T07:06:59;100365.73;;;10.99;80.99
69351;BME280;57106;51.446;-2.606;2023-04-01T07:09:26;100366.79;;;11.06;80.90
69351;BME280;57106;51.446;-2.606;2023-04-01T07:11:49;100373.26;;;11.01;80.57
69351;BME280;57106;51.446;-2.606;2023-04-01T07:14:19;100371.08;;;11.09;80.54
69351;BME280;57106;51.446;-2.606;2023-04-01T07:16:43;100376.24;;;11.00;80.48
69351;BME280;57106;51.446;-2.606;2023-04-01T07:19:09;100380.33;;;10.87;81.13
69351;BME280;57106;51.446;-2.606;2023-04-01T07:21:35;100379.41;;;10.83;81.16
69351;BME280;57106;51.446;-2.606;2023-04-01T07:24:01;100381.82;;;11.01;80.64
69351;BME280;57106;51.446;-2.606;2023-04-01T07:26:23;100388.70;;;10.80;81.00
69351;BME280;57106;51.446;-2.606;2023-04-01T07:28:48;100390.67;;;10.85;81.36
69351;BME280;57106;51.446;-2.606;2023-04-01T07:31:20;100391.43;;;10.85;81.67
69351;BME280;57106;51.446;-2.606;2023-04-01T07:33:42;100394.22;;;11.03;80.72
69351;BME280;57106;51.446;-2.606;2023-04-01T07:36:10;100394.43;;;11.23;79.97
69351;BME280;57106;51.446;-2.606;2023-04-01T07:38:34;100400.18;;;11.09;80.48
69351;BME280;57106;51.446;-2.606;2023-04-01T07:40:59;100403.18;;;11.13;80.62
69351;BME280;57106;51.446;-2.606;2023-04-01T07:43:35;100404.76;;;11.25;80.28
69351;BME280;57106;51.446;-2.606;2023-04-01T07:45:52;100405.13;;;11.30;80.13
69351;BME280;57106;51.446;-2.606;2023-04-01T07:48:21;100411.30;;;11.51;79.44
69351;BME280;57106;51.446;-2.606;2023-04-01T07:50:40;100414.94;;;11.66;78.69
69351;BME280;57106;51.446;-2.606;2023-04-01T07:53:11;100414.55;;;11.34;79.54
69351;BME280;57106;51.446;-2.606;2023-04-01T07:55:36;100419.32;;;11.59;79.19
69351;BME280;57106;51.446;-2.606;2023-04-01T07:57:59;100420.32;;;11.72;78.56
69351;BME280;57106;51.446;-2.606;2023-04-01T08:00:20;100421.78;;;11.63;78.27
69351;BME280;57106;51.446;-2.606;2023-04-01T08:05:18;100432.18;;;11.73;78.20
69351;BME280;57106;51.446;-2.606;2023-04-01T08:07:40;100433.06;;;11.70;77.85
69351;BME280;57106;51.446;-2.606;2023-04-01T08:10:07;100436.08;;;11.80;77.80
69351;BME280;57106;51.446;-2.606;2023-04-01T08:12:35;100436.06;;;11.70;77.21
69351;BME280;57106;51.446;-2.606;2023-04-01T08:15:07;100443.95;;;11.56;76.92
69351;BME280;57106;51.446;-2.606;2023-04-01T08:17:22;100441.73;;;11.84;76.62
69351;BME280;57106;51.446;-2.606;2023-04-01T08:19:55;100446.82;;;11.83;76.33
69351;BME280;57106;51.446;-2.606;2023-04-01T08:22:13;100446.92;;;11.68;76.12
69351;BME280;57106;51.446;-2.606;2023-04-01T08:24:36;100454.23;;;11.82;75.70
69351;BME280;57106;51.446;-2.606;2023-04-01T08:27:01;100459.70;;;11.89;75.79
69351;BME280;57106;51.446;-2.606;2023-04-01T08:29:31;100469.40;;;11.85;75.87
69351;BME280;57106;51.446;-2.606;2023-04-01T08:31:55;100472.20;;;11.65;76.80
69351;BME280;57106;51.446;-2.606;2023-04-01T08:34:19;100484.09;;;11.26;76.58
69351;BME280;57106;51.446;-2.606;2023-04-01T08:36:44;100478.29;;;10.94;78.54
69351;BME280;57106;51.446;-2.606;2023-04-01T08:39:10;100487.20;;;10.87;78.38
69351;BME280;57106;51.446;-2.606;2023-04-01T08:41:46;100489.12;;;10.94;77.39
69351;BME280;57106;51.446;-2.606;2023-04-01T08:44:15;100491.62;;;10.69;78.30
69351;BME280;57106;51.446;-2.606;2023-04-01T08:46:44;100497.15;;;10.92;77.93
69351;BME280;57106;51.446;-2.606;2023-04-01T08:49:02;100507.67;;;10.90;77.67
69351;BME280;57106;51.446;-2.606;2023-04-01T08:53:51;100505.33;;;10.68;78.65
69351;BME280;57106;51.446;-2.606;2023-04-01T08:56:13;100508.75;;;11.03;77.56
69351;BME280;57106;51.446;-2.606;2023-04-01T08:58:52;100518.03;;;11.29;77.62
69351;BME280;57106;51.446;-2.606;2023-04-01T09:01:01;100520.04;;;11.00;77.60
69351;BME280;57106;51.446;-2.606;2023-04-01T09:03:34;100525.51;;;11.06;77.71
69351;BME280;57106;51.446;-2.606;2023-04-01T09:06:06;100525.85;;;11.08;77.87
69351;BME280;57106;51.446;-2.606;2023-04-01T09:08:25;100527.30;;;11.20;77.63
69351;BME280;57106;51.446;-2.606;2023-04-01T09:10:49;100528.85;;;11.14;76.49
69351;BME280;57106;51.446;-2.606;2023-04-01T09:13:17;100531.57;;;11.31;76.55
69351;BME280;57106;51.446;-2.606;2023-04-01T09:20:38;100541.96;;;11.60;76.14
69351;BME280;57106;51.446;-2.606;2023-04-01T09:23:01;100544.19;;;11.78;76.34
69351;BME280;57106;51.446;-2.606;2023-04-01T09:25:23;100551.01;;;11.77;76.59
69351;BME280;57106;51.446;-2.606;2023-04-01T09:27:44;100551.37;;;11.81;76.00
69351;BME280;57106;51.446;-2.606;2023-04-01T09:34:55;100551.34;;;12.00;75.07
69351;BME280;57106;51.446;-2.606;2023-04-01T09:44:46;100562.92;;;12.53;73.74
69351;BME280;57106;51.446;-2.606;2023-04-01T09:47:10;100563.28;;;12.50;74.20
69351;BME280;57106;51.446;-2.606;2023-04-01T09:52:05;100566.46;;;12.59;74.46
69351;BME280;57106;51.446;-2.606;2023-04-01T09:54:28;100569.74;;;12.67;73.93
69351;BME280;57106;51.446;-2.606;2023-04-01T09:59:24;100577.94;;;12.73;73.59
69351;BME280;57106;51.446;-2.606;2023-04-01T10:01:42;100580.52;;;12.69;72.30
69351;BME280;57106;51.446;-2.606;2023-04-01T10:11:26;100590.22;;;12.39;71.97
69351;BME280;57106;51.446;-2.606;2023-04-01T10:14:00;100593.66;;;12.25;72.89
69351;BME280;57106;51.446;-2.606;2023-04-01T10:18:48;100607.66;;;12.11;73.84
69351;BME280;57106;51.446;-2.606;2023-04-01T10:21:09;100608.99;;;11.94;73.61
69351;BME280;57106;51.446;-2.606;2023-04-01T10:23:29;100610.83;;;11.77;75.04
69351;BME280;57106;51.446;-2.606;2023-04-01T10:26:03;100619.42;;;11.70;75.10
69351;BME280;57106;51.446;-2.606;2023-04-01T10:28:32;100623.31;;;11.59;75.57
69351;BME280;57106;51.446;-2.606;2023-04-01T10:33:16;100629.85;;;11.53;75.02
69351;BME280;57106;51.446;-2.606;2023-04-01T11:21:56;100707.33;;;10.92;79.16
69351;BME280;57106;51.446;-2.606;2023-04-01T11:26:33;100713.40;;;10.73;79.35
69351;BME280;57106;51.446;-2.606;2023-04-01T11:29:03;100717.83;;;10.87;79.92
69351;BME280;57106;51.446;-2.606;2023-04-01T11:31:24;100725.01;;;11.18;78.78
69351;BME280;57106;51.446;-2.606;2023-04-01T11:33:45;100732.73;;;10.70;79.29
69351;BME280;57106;51.446;-2.606;2023-04-01T11:36:18;100737.36;;;10.73;79.55
69351;BME280;57106;51.446;-2.606;2023-04-01T11:38:51;100737.95;;;10.78;78.95
69351;BME280;57106;51.446;-2.606;2023-04-01T11:43:31;100746.90;;;10.89;78.53
69351;BME280;57106;51.446;-2.606;2023-04-01T11:45:56;100749.39;;;10.77;78.20
69351;BME280;57106;51.446;-2.606;2023-04-01T11:48:23;100756.08;;;10.67;77.48
69351;BME280;57106;51.446;-2.606;2023-04-01T11:50:54;100766.13;;;11.19;76.75
69351;BME280;57106;51.446;-2.606;2023-04-01T11:53:16;100767.65;;;11.50;75.95
69351;BME280;57106;51.446;-2.606;2023-04-01T11:55:39;100771.83;;;11.41;74.53
69351;BME280;57106;51.446;-2.606;2023-04-01T11:58:15;100772.54;;;11.75;75.57
69351;BME280;57106;51.446;-2.606;2023-04-01T12:00:37;100776.69;;;12.04;74.56
69351;BME280;57106;51.446;-2.606;2023-04-01T12:03:02;100780.20;;;12.05;74.16
69351;BME280;57106;51.446;-2.606;2023-04-01T12:05:25;100792.74;;;11.40;73.99
69351;BME280;57106;51.446;-2.606;2023-04-01T12:07:51;100792.21;;;11.49;75.28
69351;BME280;57106;51.446;-2.606;2023-04-01T12:10:14;100796.29;;;12.10;74.58
69351;BME280;57106;51.446;-2.606;2023-04-01T12:12:38;100809.31;;;11.57;74.49
69351;BME280;57106;51.446;-2.606;2023-04-01T12:15:10;100814.38;;;11.21;75.57
69351;BME280;57106;51.446;-2.606;2023-04-01T12:17:30;100810.19;;;10.82;76.39
69351;BME280;57106;51.446;-2.606;2023-04-01T12:19:53;100813.66;;;10.83;76.58
69351;BME280;57106;51.446;-2.606;2023-04-01T12:22:28;100819.36;;;10.94;75.69
69351;BME280;57106;51.446;-2.606;2023-04-01T12:24:46;100820.23;;;11.15;75.77
69351;BME280;57106;51.446;-2.606;2023-04-01T12:27:16;100832.43;;;11.12;75.15
69351;BME280;57106;51.446;-2.606;2023-04-01T12:29:42;100828.84;;;10.95;75.80
69351;BME280;57106;51.446;-2.606;2023-04-01T12:32:02;100831.49;;;11.53;74.93
69351;BME280;57106;51.446;-2.606;2023-04-01T12:36:54;100836.27;;;11.37;74.07
69351;BME280;57106;51.446;-2.606;2023-04-01T12:39:21;100846.58;;;11.31;74.81
69351;BME280;57106;51.446;-2.606;2023-04-01T12:41:40;100844.30;;;11.20;75.07
69351;BME280;57106;51.446;-2.606;2023-04-01T12:44:13;100849.48;;;11.33;74.38
69351;BME280;57106;51.446;-2.606;2023-04-01T12:46:35;100856.01;;;11.24;74.45
69351;BME280;57106;51.446;-2.606;2023-04-01T12:51:36;100862.73;;;11.89;73.03
69351;BME280;57106;51.446;-2.606;2023-04-01T12:56:14;100869.83;;;11.98;71.02
69351;BME280;57106;51.446;-2.606;2023-04-01T12:58:53;100874.87;;;12.07;71.11
69351;BME280;57106;51.446;-2.606;2023-04-01T13:03:41;100884.02;;;11.94;71.69
69351;BME280;57106;51.446;-2.606;2023-04-01T13:06:03;100896.31;;;11.54;71.69
69351;BME280;57106;51.446;-2.606;2023-04-01T13:08:28;100893.93;;;11.88;71.51
69351;BME280;57106;51.446;-2.606;2023-04-01T13:10:53;100896.82;;;11.38;72.12
69351;BME280;57106;51.446;-2.606;2023-04-01T13:13:20;100901.39;;;11.26;72.59
69351;BME280;57106;51.446;-2.606;2023-04-01T13:15:37;100898.37;;;11.41;71.74
69351;BME280;57106;51.446;-2.606;2023-04-01T13:18:07;100902.25;;;11.92;70.01
69351;BME280;57106;51.446;-2.606;2023-04-01T13:20:35;100900.87;;;12.12;69.91
69351;BME280;57106;51.446;-2.606;2023-04-01T13:23:00;100903.70;;;12.05;69.72
69351;BME280;57106;51.446;-2.606;2023-04-01T13:25:22;100909.98;;;12.22;69.74
69351;BME280;57106;51.446;-2.606;2023-04-01T13:27:43;100920.27;;;11.99;68.75
69351;BME280;57106;51.446;-2.606;2023-04-01T13:30:21;100925.44;;;11.83;69.14
69351;BME280;57106;51.446;-2.606;2023-04-01T13:32:38;100930.58;;;11.81;70.19
69351;BME280;57106;51.446;-2.606;2023-04-01T13:35:08;100929.12;;;11.70;70.54
69351;BME280;57106;51.446;-2.606;2023-04-01T13:37:36;100931.57;;;11.94;69.10
69351;BME280;57106;51.446;-2.606;2023-04-01T13:39:57;100936.98;;;11.90;69.52
69351;BME280;57106;51.446;-2.606;2023-04-01T13:42:20;100937.52;;;11.90;69.21
69351;BME280;57106;51.446;-2.606;2023-04-01T13:44:42;100938.55;;;12.61;68.03
69351;BME280;57106;51.446;-2.606;2023-04-01T13:47:17;100936.11;;;12.83;66.81
69351;BME280;57106;51.446;-2.606;2023-04-01T13:49:45;100939.27;;;13.38;66.33
69351;BME280;57106;51.446;-2.606;2023-04-01T13:52:08;100946.07;;;13.30;65.28
69351;BME280;57106;51.446;-2.606;2023-04-01T13:54:38;100951.43;;;13.25;65.73
69351;BME280;57106;51.446;-2.606;2023-04-01T13:56:55;100959.53;;;12.94;64.82
69351;BME280;57106;51.446;-2.606;2023-04-01T14:01:41;100965.21;;;12.35;66.40
69351;BME280;57106;51.446;-2.606;2023-04-01T14:04:15;100973.98;;;12.46;66.98
69351;BME280;57106;51.446;-2.606;2023-04-01T14:06:34;100972.72;;;12.01;66.98
69351;BME280;57106;51.446;-2.606;2023-04-01T14:11:24;100976.61;;;12.58;66.17
69351;BME280;57106;51.446;-2.606;2023-04-01T14:13:53;100984.70;;;12.40;66.91
69351;BME280;57106;51.446;-2.606;2023-04-01T14:16:23;100986.81;;;12.10;67.48
69351;BME280;57106;51.446;-2.606;2023-04-01T14:18:46;100991.89;;;12.07;67.29
69351;BME280;57106;51.446;-2.606;2023-04-01T14:21:13;100991.85;;;12.28;66.88
69351;BME280;57106;51.446;-2.606;2023-04-01T14:23:41;100998.79;;;12.50;66.16
69351;BME280;57106;51.446;-2.606;2023-04-01T14:28:25;101006.47;;;12.29;66.30
69351;BME280;57106;51.446;-2.606;2023-04-01T14:30:59;101010.27;;;12.69;65.59
69351;BME280;57106;51.446;-2.606;2023-04-01T14:33:21;101010.34;;;12.73;63.84
69351;BME280;57106;51.446;-2.606;2023-04-01T14:35:38;101009.93;;;12.91;64.40
69351;BME280;57106;51.446;-2.606;2023-04-01T14:38:17;101011.84;;;12.86;64.84
69351;BME280;57106;51.446;-2.606;2023-04-01T14:40:28;101013.46;;;12.73;63.21
69351;BME280;57106;51.446;-2.606;2023-04-01T14:43:08;101019.85;;;12.21;64.51
69351;BME280;57106;51.446;-2.606;2023-04-01T14:45:30;101020.65;;;12.60;64.36
69351;BME280;57106;51.446;-2.606;2023-04-01T14:47:47;101026.06;;;12.87;63.95
69351;BME280;57106;51.446;-2.606;2023-04-01T14:50:12;101030.94;;;12.47;63.60
69351;BME280;57106;51.446;-2.606;2023-04-01T14:52:35;101032.47;;;13.07;62.84
69351;BME280;57106;51.446;-2.606;2023-04-01T14:54:59;101034.74;;;12.85;63.17
69351;BME280;57106;51.446;-2.606;2023-04-01T14:57:25;101045.97;;;13.03;62.78
69351;BME280;57106;51.446;-2.606;2023-04-01T14:59:51;101045.90;;;12.90;62.47
69351;BME280;57106;51.446;-2.606;2023-04-01T15:04:50;101045.24;;;12.96;63.51